createdAt,value
2018-04-22T04:52:01.871Z,16.50
2018-04-22T04:54:33.745Z,16.60
2018-04-22T04:57:05.744Z,16.70
2018-04-22T04:59:37.909Z,16.80
2018-04-22T05:02:09.807Z,16.90
2018-04-22T05:04:41.685Z,17.10
2018-04-22T05:07:13.575Z,17.30
2018-04-22T05:09:46.214Z,17.80
2018-04-22T05:12:18.098Z,17.80
2018-04-22T05:14:49.969Z,18.00
2018-04-22T05:17:22.627Z,18.60
2018-04-22T05:19:54.502Z,18.50
2018-04-22T05:22:27.158Z,19.20
2018-04-22T05:24:59.038Z,19.10
2018-04-22T05:27:30.926Z,19.40
2018-04-22T05:30:02.806Z,19.70
2018-04-22T05:32:34.694Z,20.00
2018-04-22T05:35:06.575Z,20.20
2018-04-22T05:37:38.466Z,20.60
2018-04-22T05:40:10.341Z,20.90
2018-04-22T05:42:42.242Z,21.20
2018-04-22T05:45:14.122Z,21.40
2018-04-22T05:47:46.870Z,21.90
2018-04-22T05:50:18.750Z,21.90
2018-04-22T05:52:50.647Z,22.20
2018-04-22T05:55:22.526Z,22.50
2018-04-22T05:57:54.418Z,22.70
2018-04-22T06:00:26.306Z,23.00
2018-04-22T06:02:58.964Z,23.70
2018-04-22T06:05:30.834Z,23.70
2018-04-22T06:08:02.731Z,23.70
2018-04-22T06:10:34.734Z,23.90
2018-04-22T06:13:06.618Z,24.10
2018-04-22T06:15:38.528Z,24.00
2018-04-22T06:18:10.414Z,24.00
2018-04-22T06:20:42.534Z,24.40
2018-04-22T06:23:14.440Z,24.60
2018-04-22T06:25:46.318Z,24.50
2018-04-22T06:28:18.228Z,24.60
2018-04-22T06:30:50.103Z,24.60
2018-04-22T06:33:21.985Z,24.60
2018-04-22T06:35:54.087Z,24.80
2018-04-22T06:38:26.746Z,25.80
2018-04-22T06:40:58.636Z,25.80
2018-04-22T06:43:30.527Z,26.40
2018-04-22T06:46:02.425Z,26.70
2018-04-22T06:48:34.293Z,27.00
2018-04-22T06:51:06.206Z,27.10
2018-04-22T06:53:38.085Z,27.20
2018-04-22T06:56:09.967Z,27.10
2018-04-22T06:58:41.863Z,27.00
2018-04-22T07:01:13.738Z,26.90
2018-04-22T07:06:34.938Z,26.20
2018-04-22T07:09:07.603Z,25.80
2018-04-22T07:11:39.475Z,25.80
2018-04-22T07:14:12.130Z,26.10
2018-04-22T07:16:44.018Z,26.10
2018-04-22T07:19:16.667Z,26.40
2018-04-22T07:21:48.534Z,26.40
2018-04-22T07:24:20.455Z,26.60
2018-04-22T07:26:52.342Z,26.70
2018-04-22T07:29:24.226Z,26.90
2018-04-22T07:31:56.866Z,27.10
2018-04-22T07:34:28.754Z,27.10
2018-04-22T07:37:00.629Z,27.30
2018-04-22T07:39:33.529Z,27.70
2018-04-22T07:42:05.400Z,27.70
2018-04-22T07:44:37.290Z,27.80
2018-04-22T07:47:09.169Z,27.90
2018-04-22T07:49:41.078Z,28.00
2018-04-22T07:52:12.954Z,28.20
2018-04-22T07:54:44.855Z,28.50
2018-04-22T07:57:16.775Z,28.30
2018-04-22T07:59:48.654Z,28.00
2018-04-22T08:02:20.530Z,27.80
2018-04-22T08:04:52.460Z,27.80
2018-04-22T08:07:24.342Z,27.80
2018-04-22T08:09:56.230Z,27.80
2018-04-22T08:12:28.932Z,27.50
2018-04-22T08:15:01.667Z,27.10
2018-04-22T08:17:33.533Z,27.10
2018-04-22T08:20:05.422Z,26.80
2018-04-22T08:22:38.062Z,26.20
2018-04-22T08:25:09.956Z,26.20
2018-04-22T08:27:42.595Z,25.80
2018-04-22T08:30:14.486Z,25.80
2018-04-22T08:32:46.358Z,25.70
2018-04-22T08:35:19.009Z,25.40
2018-04-22T08:37:50.889Z,25.40
2018-04-22T08:40:23.541Z,25.50
2018-04-22T08:42:55.422Z,25.50
2018-04-22T08:45:28.329Z,25.90
2018-04-22T08:48:00.200Z,25.90
2018-04-22T08:50:32.097Z,26.20
2018-04-22T08:53:04.010Z,26.50
2018-04-22T08:55:36.653Z,27.10
2018-04-22T08:58:08.522Z,27.10
2018-04-22T09:00:40.626Z,27.50
2018-04-22T09:03:12.506Z,28.00
2018-04-22T09:05:44.383Z,28.20
2018-04-22T09:08:16.253Z,28.30
2018-04-22T09:10:48.187Z,28.30
2018-04-22T09:13:20.774Z,28.30
2018-04-22T09:15:52.661Z,28.30
2018-04-22T09:18:24.542Z,28.30
2018-04-22T09:20:57.202Z,28.00
2018-04-22T09:23:29.070Z,28.00
2018-04-22T09:26:01.713Z,28.00
2018-04-22T09:28:33.598Z,27.90
2018-04-22T09:31:05.486Z,28.00
2018-04-22T09:33:37.362Z,28.20
2018-04-22T09:36:09.244Z,28.50
2018-04-22T09:38:41.110Z,28.60
2018-04-22T09:41:13.010Z,28.80
2018-04-22T09:43:45.659Z,29.10
2018-04-22T09:46:17.772Z,29.10
2018-04-22T09:48:49.861Z,29.40
2018-04-22T09:51:21.750Z,29.60
2018-04-22T09:53:53.613Z,29.70
2018-04-22T09:56:25.516Z,30.10
2018-04-22T09:58:58.138Z,30.60
2018-04-22T10:01:30.022Z,30.50
2018-04-22T10:04:02.118Z,31.00
2018-04-22T10:06:34.002Z,31.30
2018-04-22T10:09:05.873Z,31.70
2018-04-22T10:11:37.757Z,32.00
2018-04-22T10:14:09.866Z,31.80
2018-04-22T10:16:41.749Z,32.00
2018-04-22T10:19:13.618Z,32.30
2018-04-22T10:21:45.505Z,32.40
2018-04-22T10:24:17.369Z,32.50
2018-04-22T10:26:49.249Z,32.50
2018-04-22T10:29:21.894Z,31.90
2018-04-22T10:31:53.793Z,31.90
2018-04-22T10:34:26.505Z,31.30
2018-04-22T10:36:59.218Z,30.90
2018-04-22T10:39:31.093Z,30.80
2018-04-22T10:42:03.046Z,30.50
2018-04-22T10:44:34.873Z,30.20
2018-04-22T10:47:06.758Z,30.00
2018-04-22T10:49:38.641Z,29.80
2018-04-22T10:52:10.513Z,29.40
2018-04-22T10:54:43.154Z,29.00
2018-04-22T10:57:15.042Z,28.90
2018-04-22T10:59:47.675Z,28.90
2018-04-22T11:02:19.566Z,28.80
2018-04-22T11:04:51.450Z,28.80
2018-04-22T11:07:24.103Z,28.90
2018-04-22T11:09:55.973Z,28.90
2018-04-22T11:12:27.859Z,29.10
2018-04-22T11:14:59.731Z,29.10
2018-04-22T11:17:31.885Z,29.00
2018-04-22T11:20:03.758Z,28.90
2018-04-22T11:22:35.653Z,28.70
2018-04-22T11:25:07.517Z,28.70
2018-04-22T11:27:39.398Z,28.50
2018-04-22T11:30:11.273Z,28.30
2018-04-22T11:32:43.916Z,28.00
2018-04-22T11:35:15.792Z,28.00
2018-04-22T11:37:47.673Z,27.90
2018-04-22T11:40:20.314Z,27.90
2018-04-22T11:42:52.197Z,27.90
2018-04-22T11:45:24.830Z,27.80
2018-04-22T11:47:56.720Z,27.70
2018-04-22T11:50:28.598Z,27.70
2018-04-22T11:53:01.254Z,27.70
2018-04-22T11:55:33.698Z,27.60
2018-04-22T11:58:05.833Z,27.70
2018-04-22T12:00:37.705Z,27.70
2018-04-22T12:03:09.599Z,27.70
2018-04-22T12:05:41.466Z,27.70
2018-04-22T12:08:13.587Z,27.70
2018-04-22T12:10:45.449Z,27.70
2018-04-22T12:13:17.334Z,27.70
2018-04-22T12:15:49.201Z,27.70
2018-04-22T12:18:21.085Z,27.70
2018-04-22T12:20:52.962Z,27.80
2018-04-22T12:23:25.614Z,27.70
2018-04-22T12:25:57.489Z,27.70
2018-04-22T12:28:29.380Z,27.80
2018-04-22T12:31:01.241Z,27.90
2018-04-22T12:33:33.405Z,27.90
2018-04-22T12:36:05.278Z,27.80
2018-04-22T12:38:37.161Z,27.60
2018-04-22T12:41:09.042Z,27.50
2018-04-22T12:43:40.933Z,27.50
2018-04-22T12:46:13.569Z,27.40
2018-04-22T12:48:45.454Z,27.40
2018-04-22T12:51:17.320Z,27.30
2018-04-22T12:53:50.017Z,27.10
2018-04-22T12:56:21.844Z,27.10
2018-04-22T12:58:53.735Z,26.90
2018-04-22T13:01:26.367Z,26.70
2018-04-22T13:03:58.250Z,26.70
2018-04-22T13:06:30.128Z,26.60
2018-04-22T13:09:02.781Z,26.20
2018-04-22T13:11:34.886Z,26.20
2018-04-22T13:14:06.783Z,25.60
2018-04-22T13:16:38.654Z,24.60
2018-04-22T13:19:10.539Z,23.40
2018-04-22T13:21:42.409Z,22.30
2018-04-22T13:24:15.061Z,20.50
2018-04-22T13:26:46.956Z,20.50
2018-04-22T13:29:19.618Z,19.10
2018-04-22T13:31:51.487Z,19.00
2018-04-22T13:34:23.411Z,18.60
2018-04-22T13:36:56.081Z,18.40
2018-04-22T13:39:27.986Z,18.30
2018-04-22T13:42:00.625Z,18.20
2018-04-22T13:44:33.283Z,18.20
2018-04-22T13:47:05.154Z,18.20
2018-04-22T13:49:37.033Z,18.30
2018-04-22T13:52:08.934Z,18.60
2018-04-22T13:54:41.622Z,19.30
2018-04-22T13:57:13.517Z,19.30
2018-04-22T13:59:45.398Z,19.60
2018-04-22T14:02:17.277Z,20.00
2018-04-22T14:04:49.938Z,20.60
2018-04-22T14:07:21.819Z,20.50
2018-04-22T14:09:54.721Z,20.70
2018-04-22T14:12:26.623Z,20.70
2018-04-22T14:14:58.510Z,20.80
2018-04-22T14:17:30.710Z,20.90
2018-04-22T14:20:02.593Z,20.90
2018-04-22T14:22:34.734Z,20.90
2018-04-22T14:25:06.913Z,20.70
2018-04-22T14:27:39.064Z,20.60
2018-04-22T14:30:10.955Z,20.60
2018-04-22T14:32:42.830Z,20.60
2018-04-22T14:35:15.494Z,20.70
2018-04-22T14:37:47.374Z,20.70
2018-04-22T14:40:19.261Z,20.80
2018-04-22T14:42:51.138Z,20.90
2018-04-22T14:45:35.611Z,20.80
2018-04-22T14:48:07.879Z,20.80
2018-04-22T14:50:39.811Z,20.50
2018-04-22T14:53:11.673Z,20.30
2018-04-22T14:55:44.361Z,20.10
2018-04-22T14:58:16.257Z,20.10
2018-04-22T15:00:48.153Z,20.10
2018-04-22T15:03:20.030Z,20.10
2018-04-22T15:05:53.079Z,20.30
2018-04-22T15:08:25.747Z,20.30
2018-04-22T15:10:57.629Z,20.20
2018-04-22T15:13:29.561Z,20.20
2018-04-22T15:16:02.184Z,20.40
2018-04-22T15:18:34.844Z,20.50
2018-04-22T15:21:06.735Z,20.50
2018-04-22T15:25:00.953Z,20.60
2018-04-22T15:27:32.777Z,20.60
2018-04-22T15:39:43.806Z,20.40
2018-04-22T15:42:15.679Z,20.30
2018-04-22T15:44:48.330Z,20.60
2018-04-22T15:47:20.206Z,20.60
2018-04-22T15:49:52.102Z,20.90
2018-04-22T15:52:23.977Z,21.10
2018-04-22T15:54:55.867Z,21.20
2018-04-22T15:57:27.742Z,21.20
2018-04-22T15:59:59.629Z,21.30
2018-04-22T16:02:32.270Z,21.20
2018-04-22T16:05:04.167Z,21.10
2018-04-22T16:07:36.809Z,20.80
2018-04-22T16:10:08.703Z,20.80
2018-04-22T16:12:41.602Z,20.60
2018-04-22T16:15:13.498Z,20.60
2018-04-22T16:17:45.373Z,20.50
2018-04-22T16:20:17.269Z,20.50
2018-04-22T16:22:49.909Z,20.40
2018-04-22T16:25:22.126Z,20.30
2018-04-22T16:27:54.014Z,20.20
2018-04-22T16:30:25.894Z,20.10
2018-04-22T16:32:57.775Z,20.00
2018-04-22T16:35:29.705Z,19.90
2018-04-22T16:38:02.312Z,19.50
2018-04-22T16:40:34.193Z,19.50
2018-04-22T16:43:07.091Z,19.20
2018-04-22T16:45:38.975Z,19.10
2018-04-22T16:48:11.089Z,19.20
2018-04-22T16:50:42.973Z,19.20
2018-04-22T16:53:14.846Z,19.20
2018-04-22T16:55:46.734Z,19.30
2018-04-22T16:58:18.605Z,19.30
2018-04-22T17:00:50.495Z,19.40
2018-04-22T17:03:22.687Z,19.50
2018-04-22T17:05:54.588Z,19.60
2018-04-22T17:08:26.709Z,19.60
2018-04-22T17:10:58.609Z,19.70
2018-04-22T17:13:30.505Z,19.70
2018-04-22T17:16:03.419Z,19.80
2018-04-22T17:18:35.285Z,19.80
2018-04-22T17:21:07.172Z,19.80
2018-04-22T17:23:39.038Z,19.90
2018-04-22T17:26:10.938Z,19.90
2018-04-22T17:28:43.573Z,20.00
2018-04-22T17:31:15.470Z,20.00
2018-04-22T17:33:48.109Z,20.10
2018-04-22T17:36:20.011Z,20.10
2018-04-22T17:38:52.658Z,20.20
2018-04-22T17:41:24.546Z,20.10
2018-04-22T17:43:57.186Z,20.20
2018-04-22T17:46:29.073Z,20.20
2018-04-22T17:49:00.947Z,20.30
2018-04-22T17:51:33.593Z,20.30
2018-04-22T17:54:05.472Z,20.30
2018-04-22T17:56:37.354Z,20.30
2018-04-22T17:59:10.257Z,20.40
2018-04-22T18:01:42.153Z,20.40
2018-04-22T18:04:14.277Z,20.40
2018-04-22T18:06:46.172Z,20.40
2018-04-22T18:09:18.047Z,20.40
2018-04-22T18:11:49.938Z,20.30
2018-04-22T18:14:22.598Z,20.20
2018-04-22T18:16:54.466Z,20.20
2018-04-22T18:19:26.342Z,20.20
2018-04-22T18:21:58.994Z,20.10
2018-04-22T18:24:30.862Z,20.00
2018-04-22T18:27:02.782Z,20.00
2018-04-22T18:29:34.664Z,20.00
2018-04-22T18:32:06.781Z,20.00
2018-04-22T18:34:38.945Z,19.90
2018-04-22T18:37:10.834Z,19.90
2018-04-22T18:39:43.641Z,19.80
2018-04-22T18:42:15.525Z,19.70
2018-04-22T18:44:47.722Z,19.70
2018-04-22T18:47:19.609Z,19.60
2018-04-22T18:49:51.490Z,19.60
2018-04-22T18:52:23.706Z,19.50
2018-04-22T18:54:55.577Z,19.40
2018-04-22T18:57:27.457Z,19.40
2018-04-22T18:59:59.345Z,19.30
2018-04-22T19:02:31.269Z,19.20
2018-04-22T19:05:03.143Z,19.20
2018-04-22T19:07:35.028Z,19.20
2018-04-22T19:10:06.949Z,19.20
2018-04-22T19:12:38.843Z,19.20
2018-04-22T19:15:10.960Z,19.20
2018-04-22T19:17:42.843Z,19.20
2018-04-22T19:20:14.725Z,19.20
2018-04-22T19:22:46.604Z,19.20
2018-04-22T19:25:18.805Z,19.10
2018-04-22T19:27:50.775Z,19.10
2018-04-22T19:30:22.662Z,19.20
2018-04-22T19:32:54.782Z,19.20
2018-04-22T19:35:27.426Z,19.20
2018-04-22T19:37:59.408Z,19.20
2018-04-22T19:40:32.062Z,19.20
2018-04-22T19:43:04.280Z,19.20
2018-04-22T19:45:36.189Z,19.20
2018-04-22T19:48:08.104Z,19.20
2018-04-22T19:50:40.128Z,19.10
2018-04-22T19:53:12.050Z,19.10
2018-04-22T19:55:43.931Z,19.10
2018-04-22T19:58:15.848Z,19.10
2018-04-22T20:00:48.018Z,19.00
2018-04-22T20:03:20.184Z,19.00
2018-04-22T20:05:52.077Z,19.00
2018-04-22T20:08:24.784Z,19.00
2018-04-22T20:10:56.690Z,18.90
